createdAt,value
2019-05-30T00:00:16.825Z,2.77
2019-05-30T00:02:51.944Z,3.27
2019-05-30T00:05:33.273Z,3.10
2019-05-30T00:08:14.235Z,3.13
2019-05-30T00:10:56.524Z,3.00
2019-05-30T00:13:37.665Z,3.00
2019-05-30T00:16:19.007Z,3.47
2019-05-30T00:18:48.309Z,2.60
2019-05-30T00:21:36.721Z,2.77
2019-05-30T00:24:25.087Z,2.83
2019-05-30T00:30:23.296Z,2.10
2019-05-30T00:32:58.921Z,2.40
2019-05-30T00:35:47.871Z,2.20
2019-05-30T00:38:36.578Z,1.90
2019-05-30T00:41:24.957Z,2.00
2019-05-30T00:44:13.303Z,2.70
2019-05-30T00:47:02.478Z,2.03
2019-05-30T00:49:51.841Z,2.23
2019-05-30T00:52:40.267Z,2.20
2019-05-30T00:55:28.645Z,2.67
2019-05-30T00:58:10.007Z,3.00
2019-05-30T01:00:50.589Z,2.53
2019-05-30T01:18:57.027Z,2.57
2019-05-30T01:21:38.005Z,2.50
2019-05-30T01:24:22.481Z,2.60
2019-05-30T01:27:03.492Z,2.37
2019-05-30T01:29:44.606Z,2.20
2019-05-30T01:32:28.892Z,2.47
2019-05-30T01:35:09.498Z,2.53
2019-05-30T01:37:50.578Z,2.30
2019-05-30T01:40:32.002Z,2.07
2019-05-30T01:43:12.609Z,2.27
2019-05-30T01:45:53.145Z,2.60
2019-05-30T01:51:26.169Z,2.60
2019-05-30T01:54:07.376Z,2.57
2019-05-30T01:59:32.422Z,2.40
2019-05-30T02:02:14.006Z,2.20
2019-05-30T02:04:54.743Z,2.63
2019-05-30T02:07:35.910Z,2.40
2019-05-30T02:10:18.075Z,2.40
2019-05-30T02:12:59.327Z,2.50
2019-05-30T02:15:40.701Z,3.00
2019-05-30T02:18:21.323Z,2.30
2019-05-30T02:20:50.629Z,2.50
2019-05-30T02:26:34.380Z,2.73
2019-05-30T02:29:22.692Z,2.80
2019-05-30T02:32:11.231Z,2.33
2019-05-30T02:35:00.809Z,2.80
2019-05-30T02:37:49.753Z,2.87
2019-05-30T02:43:31.973Z,2.93
2019-05-30T02:49:15.763Z,2.67
2019-05-30T02:52:06.333Z,2.97
2019-05-30T02:54:55.129Z,2.50
2019-05-30T02:57:36.222Z,2.47
2019-05-30T03:00:18.032Z,2.70
2019-05-30T03:02:59.000Z,3.20
2019-05-30T03:05:43.405Z,3.17
2019-05-30T03:08:24.434Z,2.73
2019-05-30T03:11:07.864Z,2.40
2019-05-30T03:13:48.857Z,3.00
2019-05-30T03:16:30.043Z,3.17
2019-05-30T03:19:11.356Z,2.93
2019-05-30T03:21:53.831Z,3.77
2019-05-30T03:24:34.733Z,3.37
2019-05-30T03:27:15.848Z,4.17
2019-05-30T03:29:57.068Z,3.40
2019-05-30T03:33:03.314Z,4.30
2019-05-30T03:35:29.466Z,3.60
2019-05-30T03:38:05.823Z,3.07
2019-05-30T03:40:46.652Z,3.40
2019-05-30T03:43:27.750Z,4.00
2019-05-30T03:46:10.038Z,3.90
2019-05-30T03:48:50.838Z,3.30
2019-05-30T03:51:32.146Z,4.53
2019-05-30T03:54:14.157Z,4.00
2019-05-30T03:56:56.433Z,3.80
2019-05-30T03:59:38.539Z,4.10
2019-05-30T04:02:19.918Z,3.53
2019-05-30T04:05:01.066Z,3.33
2019-05-30T04:07:41.980Z,4.10
2019-05-30T04:10:22.763Z,3.70
2019-05-30T04:13:04.024Z,3.40
2019-05-30T04:15:45.210Z,2.77
2019-05-30T04:18:25.831Z,3.73
2019-05-30T04:21:08.551Z,3.30
2019-05-30T04:23:49.456Z,3.50
2019-05-30T04:26:30.626Z,3.30
2019-05-30T04:29:14.354Z,3.30
2019-05-30T04:31:55.765Z,2.77
2019-05-30T04:34:36.987Z,3.67
2019-05-30T04:37:19.037Z,3.47
2019-05-30T04:40:00.466Z,3.43
2019-05-30T04:42:41.656Z,2.87
2019-05-30T04:45:27.325Z,3.03
2019-05-30T04:48:04.715Z,3.50
2019-05-30T04:50:46.154Z,2.63
2019-05-30T04:53:27.108Z,3.00
2019-05-30T04:56:07.801Z,3.20
2019-05-30T04:58:48.927Z,2.60
2019-05-30T05:01:29.903Z,3.00
2019-05-30T05:04:11.424Z,3.13
2019-05-30T05:06:52.248Z,2.90
2019-05-30T05:09:33.760Z,1.70
2019-05-30T05:12:16.103Z,2.70
2019-05-30T05:14:56.819Z,2.97
2019-05-30T05:17:37.889Z,3.20
2019-05-30T05:20:19.425Z,2.80
2019-05-30T05:23:00.866Z,2.57
2019-05-30T05:25:42.098Z,2.63
2019-05-30T05:28:24.591Z,2.27
2019-05-30T05:31:05.880Z,3.23
2019-05-30T05:33:56.195Z,1.90
2019-05-30T05:36:30.249Z,2.60
2019-05-30T05:39:10.850Z,2.60
2019-05-30T05:41:52.245Z,2.27
2019-05-30T05:44:33.526Z,2.00
2019-05-30T05:47:14.695Z,2.17
2019-05-30T05:49:56.181Z,3.60
2019-05-30T05:52:38.685Z,3.23
2019-05-30T05:55:20.882Z,2.47
2019-05-30T05:58:04.239Z,2.40
2019-05-30T06:00:43.901Z,2.50
2019-05-30T06:03:24.616Z,2.10
2019-05-30T06:06:05.661Z,2.50
2019-05-30T06:08:46.809Z,2.53
2019-05-30T06:11:28.908Z,2.00
2019-05-30T06:14:10.002Z,2.33
2019-05-30T06:16:50.633Z,3.10
2019-05-30T06:19:45.386Z,2.00
2019-05-30T06:22:14.582Z,2.97
2019-05-30T06:24:55.676Z,1.33
2019-05-30T06:27:36.892Z,2.20
2019-05-30T06:30:18.221Z,2.60
2019-05-30T06:32:59.896Z,2.25
2019-05-30T06:35:40.516Z,4.30
2019-05-30T06:38:23.077Z,1.63
2019-05-30T06:41:04.418Z,1.83
2019-05-30T06:46:35.243Z,2.10
2019-05-30T06:49:16.709Z,1.57
2019-05-30T06:51:58.017Z,1.87
2019-05-30T06:54:39.212Z,2.43
2019-05-30T06:57:21.102Z,1.83
2019-05-30T07:00:02.415Z,2.20
2019-05-30T07:02:42.947Z,1.80
2019-05-30T07:05:26.230Z,2.20
2019-05-30T07:08:06.657Z,2.33
2019-05-30T07:10:48.041Z,2.03
2019-05-30T07:13:17.337Z,2.60
2019-05-30T07:16:05.817Z,2.67
2019-05-30T07:21:48.069Z,2.20
2019-05-30T07:24:36.443Z,2.20
2019-05-30T07:27:26.076Z,1.37
2019-05-30T07:30:15.331Z,1.80
2019-05-30T07:33:03.714Z,1.70
2019-05-30T07:35:52.170Z,1.77
2019-05-30T07:38:40.603Z,1.40
2019-05-30T07:41:29.015Z,2.03
2019-05-30T07:44:17.796Z,2.23
2019-05-30T07:47:06.276Z,2.10
2019-05-30T07:49:55.178Z,1.60
2019-05-30T07:52:43.972Z,3.40
2019-05-30T07:58:19.576Z,1.83
2019-05-30T08:01:08.026Z,1.40
2019-05-30T08:03:56.441Z,2.10
2019-05-30T08:06:45.072Z,1.80
2019-05-30T08:09:33.476Z,1.20
2019-05-30T08:15:15.813Z,1.80
2019-05-30T08:18:04.232Z,2.00
2019-05-30T08:20:52.605Z,1.70
2019-05-30T08:23:40.966Z,1.50
2019-05-30T08:26:30.033Z,1.63
2019-05-30T08:29:19.886Z,2.00
2019-05-30T08:32:08.338Z,2.20
2019-05-30T08:34:56.720Z,2.40
2019-05-30T08:37:46.351Z,2.00
2019-05-30T08:40:35.370Z,1.30
2019-05-30T08:43:24.819Z,1.50
2019-05-30T08:46:13.177Z,1.90
2019-05-30T08:49:01.894Z,1.90
2019-05-30T08:51:51.670Z,1.70
2019-05-30T08:54:40.566Z,2.50
2019-05-30T08:57:23.022Z,1.53
2019-05-30T09:00:04.377Z,2.20
2019-05-30T09:02:46.873Z,1.73
2019-05-30T09:05:28.015Z,1.63
2019-05-30T09:08:08.961Z,1.30
2019-05-30T09:10:50.239Z,1.80
2019-05-30T09:13:31.905Z,1.50
2019-05-30T09:16:12.972Z,1.20
2019-05-30T09:18:54.370Z,2.07
2019-05-30T09:21:35.457Z,1.50
2019-05-30T09:24:16.725Z,1.90
2019-05-30T09:29:56.221Z,1.67
2019-05-30T09:32:38.351Z,1.67
2019-05-30T09:35:20.691Z,2.10
2019-05-30T09:38:01.915Z,1.90
2019-05-30T09:40:43.632Z,1.43
2019-05-30T09:43:24.503Z,1.33
2019-05-30T09:46:05.077Z,2.40
2019-05-30T09:48:46.749Z,1.07
2019-05-30T09:51:27.498Z,1.97
2019-05-30T09:54:08.861Z,2.30
2019-05-30T09:56:50.662Z,1.93
2019-05-30T09:59:32.393Z,2.27
2019-05-30T10:02:13.516Z,2.17
2019-05-30T10:04:54.982Z,2.00
2019-05-30T10:07:36.594Z,2.20
2019-05-30T10:10:17.890Z,2.20
2019-05-30T10:13:00.063Z,2.30
2019-05-30T10:15:40.979Z,2.33
2019-05-30T10:18:21.634Z,2.27
2019-05-30T10:21:02.896Z,1.80
2019-05-30T10:23:45.648Z,1.67
2019-05-30T10:26:26.401Z,2.40
2019-05-30T10:29:07.771Z,2.10
2019-05-30T10:31:49.259Z,2.80
2019-05-30T10:34:31.031Z,1.60
2019-05-30T10:37:12.230Z,2.07
2019-05-30T10:39:42.194Z,2.03
2019-05-30T10:42:30.627Z,2.60
2019-05-30T10:45:19.331Z,2.50
2019-05-30T10:48:07.917Z,1.63
2019-05-30T10:50:56.762Z,2.27
2019-05-30T10:53:38.224Z,1.50
2019-05-30T10:56:19.022Z,2.43
2019-05-30T10:59:00.298Z,1.93
2019-05-30T11:01:41.738Z,3.40
2019-05-30T11:04:22.998Z,2.00
2019-05-30T11:07:10.983Z,2.20
2019-05-30T11:09:46.812Z,2.33
2019-05-30T11:12:27.745Z,2.50
2019-05-30T11:15:08.779Z,2.20
2019-05-30T11:17:51.472Z,2.00
2019-05-30T11:20:32.829Z,2.77
2019-05-30T11:23:13.778Z,2.43
2019-05-30T11:25:55.179Z,3.10
2019-05-30T11:28:36.081Z,2.43
2019-05-30T11:31:16.979Z,2.63
2019-05-30T11:33:59.188Z,2.40
2019-05-30T11:36:39.936Z,2.40
2019-05-30T11:39:21.529Z,2.00
2019-05-30T11:42:02.696Z,2.13
2019-05-30T11:44:43.424Z,2.77
2019-05-30T11:47:24.738Z,2.30
2019-05-30T11:50:05.317Z,2.73
2019-05-30T11:52:46.611Z,2.13
2019-05-30T11:55:27.720Z,2.23
2019-05-30T11:58:09.143Z,2.57
2019-05-30T12:00:50.295Z,2.07
2019-05-30T12:03:31.529Z,1.90
2019-05-30T12:06:12.681Z,2.70
2019-05-30T12:08:52.790Z,2.97
2019-05-30T12:11:41.269Z,2.57
2019-05-30T12:14:29.747Z,2.20
2019-05-30T12:17:18.121Z,2.53
2019-05-30T12:20:06.751Z,2.03
2019-05-30T12:22:55.910Z,2.80
2019-05-30T12:25:45.161Z,2.20
2019-05-30T12:28:33.610Z,2.13
2019-05-30T12:31:21.986Z,2.13
2019-05-30T12:34:10.360Z,2.00
2019-05-30T12:36:58.768Z,1.80
2019-05-30T12:39:47.179Z,2.43
2019-05-30T12:42:35.516Z,2.20
2019-05-30T12:45:24.117Z,1.70
2019-05-30T12:48:12.476Z,2.80
2019-05-30T12:51:01.478Z,2.90
2019-05-30T12:53:43.604Z,2.20
2019-05-30T12:56:24.815Z,2.50
2019-05-30T12:59:07.130Z,3.20
2019-05-30T13:01:48.577Z,3.13
2019-05-30T13:04:29.875Z,2.07
2019-05-30T13:07:11.121Z,2.23
2019-05-30T13:09:51.841Z,3.10
2019-05-30T13:12:33.488Z,2.20
2019-05-30T13:15:14.698Z,2.43
2019-05-30T13:17:57.199Z,1.53
2019-05-30T13:20:38.106Z,2.70
2019-05-30T13:23:19.639Z,2.57
2019-05-30T13:26:01.914Z,2.03
2019-05-30T13:28:42.746Z,2.50
2019-05-30T13:31:23.361Z,4.00
2019-05-30T13:34:04.984Z,2.70
2019-05-30T13:36:46.129Z,3.07
2019-05-30T13:39:26.745Z,2.97
2019-05-30T13:42:07.852Z,2.33
2019-05-30T13:44:48.781Z,2.30
2019-05-30T13:47:30.450Z,3.90
2019-05-30T13:50:14.226Z,2.77
2019-05-30T13:52:54.606Z,3.53
2019-05-30T13:55:35.514Z,3.40
2019-05-30T13:58:16.818Z,3.10
2019-05-30T14:00:59.750Z,3.20
2019-05-30T14:03:44.273Z,3.37
2019-05-30T14:06:25.358Z,3.17
2019-05-30T14:09:06.368Z,4.07
2019-05-30T14:11:47.487Z,3.63
2019-05-30T14:14:29.039Z,4.63
2019-05-30T14:17:12.330Z,4.63
2019-05-30T14:19:53.152Z,4.03
2019-05-30T14:22:34.544Z,4.33
2019-05-30T14:25:16.982Z,2.63
2019-05-30T14:30:47.645Z,2.30
2019-05-30T14:33:28.365Z,3.27
2019-05-30T14:36:11.439Z,4.10
2019-05-30T14:38:58.396Z,3.97
2019-05-30T14:41:34.941Z,3.20
2019-05-30T14:44:15.847Z,3.53
2019-05-30T14:46:56.389Z,3.60
2019-05-30T14:49:36.896Z,3.53
2019-05-30T14:52:18.525Z,3.00
2019-05-30T14:54:59.826Z,2.90
2019-05-30T14:57:41.183Z,3.37
2019-05-30T15:00:22.623Z,2.53
2019-05-30T15:03:07.538Z,2.80
2019-05-30T15:05:47.483Z,3.20
2019-05-30T15:08:28.447Z,3.73
2019-05-30T15:11:09.684Z,3.50
2019-05-30T15:13:51.048Z,2.33
2019-05-30T15:16:32.276Z,3.60
2019-05-30T15:19:14.285Z,3.10
2019-05-30T15:21:55.449Z,4.07
2019-05-30T15:24:36.929Z,3.30
2019-05-30T15:27:20.565Z,3.10
2019-05-30T15:29:59.865Z,2.00
2019-05-30T15:32:41.081Z,2.73
2019-05-30T15:35:23.479Z,4.07
2019-05-30T15:38:04.280Z,3.53
2019-05-30T15:40:45.182Z,4.13
2019-05-30T15:43:26.475Z,3.00
2019-05-30T15:46:07.925Z,3.03
2019-05-30T15:48:49.296Z,2.30
2019-05-30T15:51:30.359Z,2.07
2019-05-30T15:54:11.426Z,2.83
2019-05-30T15:56:52.272Z,2.63
2019-05-30T15:59:33.037Z,2.63
2019-05-30T16:02:14.314Z,2.70
2019-05-30T16:04:56.173Z,3.00
2019-05-30T16:07:37.473Z,2.90
2019-05-30T16:10:19.029Z,3.30
2019-05-30T16:13:00.366Z,3.87
2019-05-30T16:15:44.514Z,3.07
2019-05-30T16:18:25.100Z,3.17
2019-05-30T16:21:06.307Z,2.60
2019-05-30T16:23:46.983Z,2.70
2019-05-30T16:29:17.765Z,2.30
2019-05-30T16:31:59.613Z,3.03
2019-05-30T16:34:40.912Z,3.00
2019-05-30T16:37:22.278Z,3.10
2019-05-30T16:40:06.313Z,2.40
2019-05-30T16:42:46.216Z,2.57
2019-05-30T16:45:27.655Z,2.93
2019-05-30T16:48:08.725Z,3.43
2019-05-30T16:50:50.059Z,3.23
2019-05-30T16:53:31.189Z,3.00
2019-05-30T16:56:12.270Z,2.80
2019-05-30T16:58:53.366Z,2.43
2019-05-30T17:01:34.872Z,3.47
2019-05-30T17:04:16.934Z,3.00
2019-05-30T17:06:57.972Z,2.47
2019-05-30T17:09:39.027Z,2.73
2019-05-30T17:12:21.641Z,2.23
2019-05-30T17:15:02.826Z,3.23
2019-05-30T17:17:44.341Z,2.73
2019-05-30T17:20:26.593Z,2.80
2019-05-30T17:23:07.267Z,2.63
2019-05-30T17:25:48.397Z,2.37
2019-05-30T17:28:29.620Z,2.33
2019-05-30T17:31:10.272Z,2.70
2019-05-30T17:33:51.249Z,3.07
2019-05-30T17:36:32.570Z,2.13
2019-05-30T17:39:13.487Z,3.67
2019-05-30T17:41:54.661Z,2.50
2019-05-30T17:44:35.554Z,3.27
2019-05-30T17:47:16.616Z,2.83
2019-05-30T17:52:47.689Z,2.90
2019-05-30T17:55:29.804Z,2.87
2019-05-30T17:58:11.083Z,2.53
2019-05-30T18:00:52.182Z,3.93
2019-05-30T18:03:33.469Z,3.77
2019-05-30T18:06:14.914Z,3.93
2019-05-30T18:08:56.177Z,3.20
2019-05-30T18:11:37.296Z,3.43
2019-05-30T18:14:18.566Z,4.10
2019-05-30T18:17:01.325Z,3.30
2019-05-30T18:19:42.375Z,3.30
2019-05-30T18:22:23.712Z,3.97
2019-05-30T18:25:06.086Z,4.33
2019-05-30T18:27:47.221Z,3.30
2019-05-30T18:30:28.425Z,2.83
2019-05-30T18:33:09.704Z,3.13
2019-05-30T18:35:51.102Z,3.80
2019-05-30T18:38:20.437Z,4.13
2019-05-30T18:41:11.723Z,4.20
2019-05-30T18:43:51.546Z,3.70
2019-05-30T18:46:33.359Z,3.90
2019-05-30T18:49:14.039Z,4.10
2019-05-30T18:51:56.000Z,4.20
2019-05-30T18:54:36.980Z,3.90
2019-05-30T18:57:17.914Z,3.60
2019-05-30T18:59:59.108Z,3.90
2019-05-30T19:02:40.283Z,3.00
2019-05-30T19:05:22.352Z,4.30
2019-05-30T19:08:03.797Z,4.70
2019-05-30T19:10:44.624Z,3.60
2019-05-30T19:13:25.224Z,3.10
2019-05-30T19:16:07.413Z,3.60
2019-05-30T19:18:47.949Z,4.80
2019-05-30T19:21:30.020Z,4.90
2019-05-30T19:24:12.121Z,4.10
2019-05-30T19:26:53.425Z,6.03
2019-05-30T19:29:34.931Z,4.63
2019-05-30T19:32:16.249Z,5.73
2019-05-30T19:34:57.108Z,4.50
2019-05-30T19:37:37.804Z,4.87
2019-05-30T19:40:18.799Z,5.40
2019-05-30T19:43:00.379Z,4.73
2019-05-30T19:45:40.931Z,5.30
2019-05-30T19:48:21.976Z,4.63
2019-05-30T19:51:03.161Z,4.13
2019-05-30T19:53:44.273Z,4.03
2019-05-30T19:56:25.469Z,5.07
2019-05-30T19:59:06.860Z,4.90
2019-05-30T20:01:50.824Z,4.07
2019-05-30T20:04:32.251Z,5.07
2019-05-30T20:07:13.604Z,4.70
2019-05-30T20:10:01.325Z,4.57
2019-05-30T20:12:43.260Z,4.23
2019-05-30T20:15:31.633Z,4.70
2019-05-30T20:21:16.282Z,4.30
2019-05-30T20:24:04.804Z,4.70
2019-05-30T20:26:53.286Z,5.37
2019-05-30T20:29:45.634Z,5.30
2019-05-30T20:32:31.826Z,5.27
2019-05-30T20:35:20.200Z,4.80
2019-05-30T20:38:08.619Z,4.23
2019-05-30T20:40:49.758Z,5.07
2019-05-30T20:43:33.191Z,5.50
2019-05-30T20:46:22.958Z,5.07
2019-05-30T20:48:56.165Z,6.20
2019-05-30T20:51:25.537Z,3.87
2019-05-30T20:54:13.993Z,4.63
2019-05-30T20:57:02.462Z,4.13
2019-05-30T20:59:50.847Z,4.87
2019-05-30T21:02:39.423Z,4.53
2019-05-30T21:05:27.804Z,5.10
2019-05-30T21:08:16.248Z,4.60
2019-05-30T21:11:04.624Z,5.67
2019-05-30T21:13:53.873Z,4.67
2019-05-30T21:16:44.238Z,4.47
2019-05-30T21:19:33.006Z,5.40
2019-05-30T21:22:21.517Z,5.70
2019-05-30T21:25:10.072Z,4.73
2019-05-30T21:27:58.563Z,5.73
2019-05-30T21:30:47.521Z,5.00
2019-05-30T21:33:37.605Z,4.80
2019-05-30T21:36:27.271Z,4.57
2019-05-30T21:39:15.703Z,5.17
2019-05-30T21:41:56.901Z,4.33
2019-05-30T21:44:38.467Z,4.90
2019-05-30T21:47:19.455Z,4.97
2019-05-30T21:50:00.588Z,5.53
2019-05-30T21:52:41.794Z,5.90
2019-05-30T21:55:23.561Z,6.73
2019-05-30T21:58:04.354Z,4.63
2019-05-30T22:00:46.588Z,4.20
2019-05-30T22:03:27.630Z,6.20
2019-05-30T22:06:08.514Z,3.83
2019-05-30T22:08:49.404Z,4.23
2019-05-30T22:11:30.365Z,5.20
2019-05-30T22:14:11.415Z,5.20
2019-05-30T22:16:52.910Z,4.30
2019-05-30T22:19:34.077Z,5.23
2019-05-30T22:22:15.556Z,5.10
2019-05-30T22:24:56.776Z,5.13
2019-05-30T22:27:37.916Z,4.90
2019-05-30T22:30:18.551Z,4.87
2019-05-30T22:32:59.710Z,4.40
2019-05-30T22:35:41.130Z,5.40
2019-05-30T22:38:22.395Z,5.10
2019-05-30T22:41:03.834Z,4.60
2019-05-30T22:43:46.272Z,5.47
2019-05-30T22:46:27.405Z,5.27
2019-05-30T22:48:56.890Z,5.27
2019-05-30T22:51:46.926Z,4.70
2019-05-30T22:54:35.661Z,5.73
2019-05-30T22:57:24.102Z,4.57
2019-05-30T23:00:33.230Z,4.20
2019-05-30T23:06:11.011Z,5.43
2019-05-30T23:08:59.396Z,5.20
2019-05-30T23:11:47.935Z,7.40
2019-05-30T23:14:36.337Z,6.07
2019-05-30T23:17:24.142Z,5.30
2019-05-30T23:20:12.753Z,5.20
2019-05-30T23:23:01.152Z,5.00
2019-05-30T23:25:49.573Z,6.07
2019-05-30T23:28:38.019Z,5.60
2019-05-30T23:31:26.828Z,4.80
2019-05-30T23:37:09.398Z,5.87
2019-05-30T23:39:50.779Z,6.00
2019-05-30T23:42:31.511Z,5.50
2019-05-30T23:45:12.267Z,7.40
2019-05-30T23:47:53.541Z,5.50
2019-05-30T23:50:34.263Z,5.70
2019-05-30T23:53:15.564Z,6.07
2019-05-30T23:55:56.773Z,6.43
2019-05-30T23:58:37.946Z,5.40
